Padus, Wisconsin
Current Conditions -  °F | °C
As of 2:15 PM on Thursday 23 Oct 2014 (Local Time) from KAIG Reporting Station
Light Rain Light Rain  
Wind Chill: 38°   Ceiling: 500
Heat Index: 42°   Visibility: 3mi
Dew Point: 42°   Wind: 6mph
Humidity: 99%   Direction: 180°S
Pressure: 30.03"   Gusts: NA
Location:  45.4387°N, 88.6036°W
Report Text: KAIG 231915Z AUTO 18005KT 3SM -RA OVC005 06/05 A3003 RMK AO2 P0001 T00550053
Loading
Personal Weather Stations






























Interactive Weather Map
Tropical Storm Tracking
New forecast layout! Learn more

10-Day Weather Forecast

Advertisements
Track Severe Weather on mobile